KAEX/AEX METAR and TAF weather

Enter ICAO airport designator
Station Type Date Time Source
KAEX METAR 2019/06/18 13:30 UTC NOAA

KAEX 181330Z 00000KT 4SM BR OVC002 23/23 A2992 RMK AO2 T02330228


Station Type Date Time Source
KAEX Decoded METAR 2019/06/18 13:30 UTC NOAA

ALEXANDRIA INTERNATIONAL AIRPORT, LA, United States (KAEX) 31-33N 092-56W 27M
Jun 18, 2019 - 09:30 AM EDT / 2019.06.18 1330 UTC
Wind: Calm:0
Visibility: 4 mile(s):0
Sky conditions: overcast
Weather: mist
Temperature: 73.9 F (23.3 C)
Dew Point: 73.0 F (22.8 C)
Relative Humidity: 97%
Pressure (altimeter): 29.92 in. Hg (1013 hPa)
ob: KAEX 181330Z 00000KT 4SM BR OVC002 23/23 A2992 RMK AO2 T02330228
cycle: 13

Station Type Date Time Source
KAEX TAF 2019/06/18 13:12 UTC NOAA

TAF
AMD KAEX 181311Z 1813/1912 VRB03KT 3SM BR FEW015
TEMPO 1813/1814 1/2SM FG
FM181400 25006KT P6SM FEW020 SCT035 SCT250
FM190100 18003KT P6SM FEW020 SCT035

Example: see airport list